Latest Weather Observations for Condobolin Airport

IDN60801

Issued at 4:35 am EDT Tuesday 25 November 2014 (issued every 30 minutes, with the page automatically refreshed every 10 minutes)

About weather observations | Map of weather stations | Latest weather observations for NSW | Other Formats
Station Details ID: 050137 Name: CONDOBOLIN AIRPORT AWS Lat: -33.07 Lon: 147.21 Height: 192.6 m
Data from the previous 72 hours. | See also: Recent months at Condobolin Airport
Date/Time
EDT
Temp
°C
App
Temp
°C
Dew
Point
Rel
Hum
%
Delta-T
°C
Wind Press
QNH
hPa
Press
MSL
hPa
Rain
since 9 am
mm
Dir
 
Spd
km/h
Gust
km/h
Spd
kts
Gust
kts
25/04:30am 16.9 10.8 9.6 62 3.9 SSW 32 43 17 23 1014.8 1014.1 1.4
25/04:00am 17.9 14.3 15.2 84 1.6 SW 28 39 15 21 1014.3 1013.6 1.0
25/03:30am 18.7 15.2 15.4 81 2.0 SW 28 35 15 19 1013.3 1012.6 0.8
25/03:00am 19.2 16.4 16.4 84 1.7 SW 26 33 14 18 1012.9 1012.2 0.6
25/02:30am 19.2 16.9 16.6 85 1.6 SW 24 33 13 18 1012.6 1011.9 0.4
25/02:00am 19.6 19.2 19.3 98 0.2 SW 20 30 11 16 1012.0 1011.3 0.4
25/01:30am 19.4 19.1 19.1 98 0.2 WSW 19 22 10 12 1012.5 1011.8 0.4
25/01:00am 19.6 18.2 18.9 96 0.4 WSW 24 32 13 17 1013.2 1012.5 0.2
25/12:30am 20.3 17.7 18.6 90 1.1 W 30 41 16 22 1013.8 1013.1 0.2
25/12:00am 21.1 20.2 18.1 83 1.9 WSW 20 26 11 14 1013.2 1012.5 0.2
 
Date/Time
EDT
Temp
°C
App
Temp
°C
Dew
Point
Rel
Hum
%
Delta-T
°C
Wind Press
QNH
hPa
Press
MSL
hPa
Rain
since 9 am
mm
Dir
 
Spd
km/h
Gust
km/h
Spd
kts
Gust
kts
24/11:30pm 21.5 22.4 16.7 74 2.9 NW 7 11 4 6 1012.4 1011.7 0.2
24/11:00pm 22.3 22.8 15.6 66 4.0 SSE 7 11 4 6 1011.6 1010.9 0.2
24/10:30pm 22.6 22.8 15.7 65 4.2 SSW 9 13 5 7 1011.8 1011.1 0.2
24/10:00pm 22.6 20.8 15.4 64 4.3 SSW 19 22 10 12 1012.1 1011.4 0.2
24/09:35pm 22.9 17.5 15.0 61 4.7 SW 37 56 20 30 1012.2 1011.5 0.0
24/09:30pm 23.1 16.9 14.9 60 4.9 SW 41 56 22 30 1012.0 1011.3 0.0
24/09:24pm 23.5 16.8 14.5 57 5.4 SW 43 54 23 29 1012.0 1011.3 0.0
24/09:00pm 25.3 19.1 15.0 53 6.2 W 41 69 22 37 1011.3 1010.6 0.0
24/08:59pm 25.6 21.4 16.2 56 5.8 W 33 69 18 37 1011.1 1010.4 0.0
24/08:30pm 25.3 25.4 16.4 57 5.5 SW 11 13 6 7 1010.1 1009.4 0.0
24/08:00pm 27.1 27.7 15.8 50 7.0 W 7 11 4 6 1009.4 1008.6 0.0
24/07:30pm 28.1 27.3 14.0 42 8.5 WNW 11 13 6 7 1008.9 1008.1 0.0
24/07:00pm 27.7 29.7 16.0 49 7.3 CALM 0 0 0 0 1008.2 1007.5 0.0
24/06:30pm 27.8 30.0 16.4 50 7.1 CALM 0 0 0 0 1007.8 1007.1 0.0
24/06:00pm 27.5 28.6 16.5 51 6.9 E 6 11 3 6 1007.6 1006.9 0.0
24/05:30pm 27.4 28.6 17.3 54 6.4 E 7 9 4 5 1007.4 1006.7 0.0
24/05:00pm 27.4 28.1 17.0 53 6.6 E 9 13 5 7 1008.2 1007.5 0.0
24/04:30pm 27.5 28.0 16.5 51 6.9 SE 9 15 5 8 1009.4 1008.6 0.0
24/04:00pm 26.8 27.4 17.6 57 5.8 SSE 11 15 6 8 1009.8 1009.1 0.0
24/03:30pm 26.2 26.3 18.3 61 5.0 SE 15 19 8 10 1010.1 1009.4 0.0
24/03:00pm 25.8 24.5 17.2 59 5.4 S 20 28 11 15 1010.6 1009.9 0.0
24/02:30pm 26.9 25.8 17.4 56 6.0 S 19 26 10 14 1010.5 1009.8 0.0
24/02:00pm 28.9 26.5 13.9 39 9.1 SW 19 28 10 15 1010.8 1010.1 0.0
24/01:30pm 31.2 27.9 11.6 30 11.5 WSW 20 24 11 13 1010.1 1009.4 0.0
24/01:00pm 31.5 29.4 11.3 29 11.8 SW 13 19 7 10 1010.0 1009.3 0.0
24/12:30pm 32.1 30.0 11.3 28 12.2 WSW 13 24 7 13 1010.2 1009.5 0.0
24/12:00pm 33.2 31.6 12.8 29 12.3 NW 13 20 7 11 1010.2 1009.5 0.0
24/11:30am 32.2 29.2 11.9 29 12.0 NW 19 30 10 16 1010.9 1010.2 0.0
24/11:00am 31.8 28.8 12.1 30 11.7 N 19 28 10 15 1011.0 1010.3 0.0
24/10:30am 32.2 28.6 11.9 29 12.0 NNW 22 32 12 17 1011.0 1010.3 0.0
24/10:00am 32.0 30.1 11.7 28 12.0 ENE 13 20 7 11 1011.1 1010.4 0.0
24/09:30am 30.2 28.5 11.2 31 11.0 SE 11 17 6 9 1011.2 1010.5 0.0
24/09:00am 29.8 27.7 11.3 32 10.8 ESE 13 19 7 10 1011.6 1010.9 0.0
24/08:30am 29.0 26.1 11.1 33 10.3 SE 17 24 9 13 1011.9 1011.2 0.0
24/08:00am 28.6 26.5 11.2 34 10.1 ESE 13 19 7 10 1012.1 1011.4 0.0
24/07:30am 27.6 24.6 10.8 35 9.6 SE 17 22 9 12 1011.8 1011.1 0.0
24/07:00am 27.2 24.2 10.8 36 9.4 SE 17 24 9 13 1011.9 1011.2 0.0
24/06:30am 27.1 24.8 10.3 35 9.5 SE 13 19 7 10 1011.6 1010.9 0.0
24/06:00am 27.3 24.8 9.6 33 9.9 SE 13 19 7 10 1011.6 1010.9 0.0
24/05:30am 27.5 25.4 9.8 33 9.9 S 11 15 6 8 1011.8 1011.1 0.0
24/05:00am 27.2 24.8 10.0 34 9.7 SSW 13 15 7 8 1011.5 1010.8 0.0
24/04:30am 27.9 25.7 9.2 31 10.4 SE 11 15 6 8 1010.9 1010.2 0.0
24/04:00am 28.8 26.4 10.0 31 10.7 E 13 22 7 12 1011.3 1010.6 0.0
24/03:30am 28.4 25.5 11.0 34 10.0 E 17 22 9 12 1011.4 1010.7 0.0
24/03:00am 29.8 25.7 8.8 27 11.7 ESE 20 32 11 17 1011.6 1010.9 0.0
24/02:30am 29.0 26.1 9.7 30 10.9 SSE 15 22 8 12 1011.2 1010.5 0.0
24/02:00am 29.0 25.5 10.2 31 10.7 E 19 24 10 13 1011.6 1010.9 0.0
24/01:30am 30.1 26.0 7.9 25 12.2 ESE 19 28 10 15 1012.2 1011.5 0.0
24/01:00am 30.4 26.4 8.2 25 12.3 SSE 19 22 10 12 1012.7 1012.0 0.0
24/12:30am 30.6 25.8 8.9 26 12.2 SSW 24 32 13 17 1013.0 1012.3 0.0
24/12:00am 30.9 26.6 9.2 26 12.3 W 22 32 12 17 1014.2 1013.5 0.0
 
Date/Time
EDT
Temp
°C
App
Temp
°C
Dew
Point
Rel
Hum
%
Delta-T
°C
Wind Press
QNH
hPa
Press
MSL
hPa
Rain
since 9 am
mm
Dir
 
Spd
km/h
Gust
km/h
Spd
kts
Gust
kts
23/11:30pm 31.2 29.4 9.4 26 12.4 SSE 9 15 5 8 1012.3 1011.6 0.0
23/11:00pm 31.6 28.2 9.2 25 12.7 S 17 24 9 13 1011.8 1011.1 0.0
23/10:30pm 32.0 28.0 8.9 24 13.1 S 20 32 11 17 1011.9 1011.2 0.0
23/10:00pm 32.3 27.2 9.2 24 13.1 S 26 39 14 21 1011.9 1011.2 0.0
23/09:30pm 33.6 27.7 7.5 20 14.5 S 28 39 15 21 1011.7 1011.0 0.0
23/09:16pm 34.4 27.4 5.8 17 15.6 SSW 32 37 17 20 1011.5 1010.8 0.0
23/09:00pm 33.4 30.8 5.9 18 14.9 SW 9 19 5 10 1011.4 1010.7 0.0
23/08:30pm 34.1 31.0 5.6 17 15.4 WSW 11 17 6 9 1010.8 1010.1 0.0
23/08:00pm 35.3 31.5 5.7 16 16.2 SW 15 19 8 10 1010.1 1009.4 0.0
23/07:30pm 36.1 30.9 5.4 15 16.8 SSW 22 30 12 16 1009.6 1008.9 0.0
23/07:00pm 36.9 30.5 5.0 14 17.4 SW 28 35 15 19 1009.1 1008.3 0.0
23/06:30pm 38.5 32.1 5.2 13 18.3 WSW 28 37 15 20 1008.7 1007.9 0.0
23/06:00pm 39.4 32.1 4.7 12 19.1 WSW 32 48 17 26 1008.2 1007.5 0.0
23/05:30pm 39.8 32.4 3.8 11 19.5 SW 32 44 17 24 1008.0 1007.3 0.0
23/05:00pm 40.4 31.6 5.5 12 19.5 SW 41 54 22 29 1008.2 1007.5 0.0
23/04:30pm 40.6 30.6 4.4 11 19.9 WSW 46 57 25 31 1008.2 1007.5 0.0
23/04:04pm 40.9 31.0 4.6 11 20.0 WSW 46 69 25 37 1008.1 1007.4 0.0
23/04:00pm 41.8 32.0 5.3 11 20.5 WSW 46 61 25 33 1008.1 1007.4 0.0
23/03:37pm 41.0 31.5 4.7 11 20.1 WSW 44 65 24 35 1008.0 1007.3 0.0
23/03:30pm 40.3 31.6 4.2 11 19.8 W 39 50 21 27 1008.0 1007.3 0.0
23/03:28pm 40.3 31.6 4.2 11 19.8 W 39 50 21 27 1008.0 1007.3 0.0
23/03:04pm 40.9 28.9 4.6 11 20.0 WNW 57 76 31 41 1007.9 1007.2 0.0
23/03:01pm 40.8 28.0 4.6 11 20.0 W 61 76 33 41 1007.7 1007.0 0.0
23/03:00pm 40.8 31.2 4.6 11 20.0 NNW 44 70 24 38 1007.7 1007.0 0.0
23/02:59pm 40.5 31.3 5.6 12 19.5 NNW 43 70 23 38 1007.5 1006.8 0.0
23/02:50pm 37.8 28.7 6.7 15 17.5 NNW 44 56 24 30 1007.9 1007.2 0.0
23/02:35pm 42.2 34.4 2.8 9 21.3 WNW 33 52 18 28 1007.8 1007.1 0.0
23/02:30pm 42.4 33.9 2.9 9 21.4 NW 37 52 20 28 1007.7 1007.0 0.0
23/02:00pm 42.6 35.4 3.1 9 21.6 WNW 30 48 16 26 1008.1 1007.4 0.0
23/01:35pm 43.7 37.0 3.9 9 22.1 WNW 28 46 15 25 1008.3 1007.6 0.0
23/01:30pm 43.5 38.3 3.7 9 22.0 WNW 20 32 11 17 1008.3 1007.6 0.0
23/01:26pm 42.6 36.9 3.1 9 21.5 WNW 22 28 12 15 1008.4 1007.7 0.0
23/01:07pm 43.5 35.1 3.7 9 22.0 NW 37 56 20 30 1008.5 1007.8 0.0
23/01:00pm 41.6 33.7 2.3 9 21.1 NW 33 46 18 25 1008.9 1008.1 0.0
23/12:30pm 42.6 33.7 3.1 9 21.5 NW 39 57 21 31 1009.2 1008.4 0.0
23/12:01pm 42.2 34.4 2.8 9 21.3 NNW 33 54 18 29 1009.5 1008.8 0.0
23/12:00pm 41.8 34.1 2.5 9 21.2 NNW 32 46 17 25 1009.6 1008.9 0.0
23/11:52am 42.7 35.5 3.1 9 21.6 NNW 30 48 16 26 1009.7 1009.0 0.0
23/11:30am 41.5 32.5 2.3 9 21.0 NNW 39 54 21 29 1009.9 1009.2 0.0
23/11:00am 40.2 31.4 1.3 9 20.4 NNW 37 52 20 28 1010.0 1009.3 0.0
23/10:30am 38.5 29.3 1.5 10 19.3 N 39 50 21 27 1010.0 1009.3 0.0
23/10:00am 38.7 29.6 1.6 10 19.4 N 39 50 21 27 1009.9 1009.2 0.0
23/09:30am 38.5 30.3 2.8 11 19.0 N 35 48 19 26 1009.7 1009.0 0.0
23/09:00am 36.4 28.9 3.6 13 17.5 N 32 41 17 22 1009.6 1008.9 0.0
23/08:30am 34.1 26.7 3.8 15 16.0 N 32 39 17 21 1009.5 1008.8 0.0
23/08:00am 32.4 25.8 4.2 17 14.8 N 28 35 15 19 1009.4 1008.6 0.0
23/07:59am 32.4 26.2 4.2 17 14.8 N 26 35 14 19 1009.4 1008.6 0.0
23/07:30am 27.3 24.7 6.1 26 11.2 E 9 11 5 6 1009.4 1008.6 0.0
23/07:00am 24.9 23.1 7.1 32 9.4 E 6 9 3 5 1009.4 1008.6 0.0
23/06:30am 21.9 19.5 7.0 38 7.7 E 9 13 5 7 1009.3 1008.5 0.0
23/06:00am 22.0 19.4 6.3 36 8.0 E 9 11 5 6 1009.1 1008.3 0.0
23/05:30am 21.9 19.4 6.6 37 7.9 E 9 11 5 6 1008.8 1008.0 0.0
23/05:00am 23.9 20.9 5.8 31 9.3 E 11 13 6 7 1008.5 1007.8 0.0
23/04:30am 24.1 21.5 5.9 31 9.4 NE 9 15 5 8 1008.7 1007.9 0.0
23/04:00am 24.8 21.7 5.6 29 9.9 NE 11 15 6 8 1009.0 1008.2 0.0
23/03:30am 25.9 21.7 5.5 27 10.5 ENE 17 24 9 13 1009.2 1008.4 0.0
23/03:20am 25.7 22.7 5.8 28 10.3 ESE 11 17 6 9 1009.3 1008.5 0.0
23/03:00am 25.7 23.5 6.3 29 10.2 SSW 7 15 4 8 1011.3 1010.6 0.0
23/02:30am 26.4 22.7 6.4 28 10.5 SSW 15 20 8 11 1010.5 1009.8 0.0
23/02:00am 27.2 22.7 7.1 28 10.8 S 20 32 11 17 1010.6 1009.9 0.0
23/01:30am 24.2 23.7 12.5 48 6.8 SW 7 11 4 6 1010.3 1009.6 0.0
23/01:00am 23.3 21.8 10.7 45 7.0 SW 9 11 5 6 1010.0 1009.3 0.0
23/12:30am 24.9 25.3 11.1 42 7.8 CALM 0 0 0 0 1010.0 1009.3 0.0
23/12:00am 25.8 26.0 10.4 38 8.7 CALM 0 0 0 0 1010.3 1009.6 0.0
 
Date/Time
EDT
Temp
°C
App
Temp
°C
Dew
Point
Rel
Hum
%
Delta-T
°C
Wind Press
QNH
hPa
Press
MSL
hPa
Rain
since 9 am
mm
Dir
 
Spd
km/h
Gust
km/h
Spd
kts
Gust
kts
22/11:30pm 28.1 26.8 11.2 35 9.7 NE 9 15 5 8 1010.6 1009.9 0.0
22/11:00pm 28.4 25.9 8.1 28 11.1 W 11 15 6 8 1010.2 1009.5 0.0
22/10:41pm 27.9 23.3 8.2 29 10.8 ENE 22 28 12 15 1010.0 1009.3 0.0
22/10:30pm 27.4 24.0 9.3 32 10.1 WSW 17 22 9 12 1012.1 1011.4 0.0
22/10:00pm 26.0 25.4 7.6 31 9.9 CALM 0 6 0 3 1010.6 1009.9 0.0
22/09:30pm 28.8 28.1 6.8 25 11.8 CALM 0 0 0 0 1010.3 1009.6 0.0
22/09:00pm 29.5 28.6 6.2 23 12.5 CALM 0 0 0 0 1010.2 1009.5 0.0
22/08:30pm 31.2 29.3 4.9 19 13.9 SW 4 7 2 4 1010.0 1009.3 0.0
22/08:00pm 32.5 30.1 5.1 18 14.6 SW 7 9 4 5 1009.8 1009.1 0.0
22/07:30pm 34.3 30.7 4.9 16 15.8 WSW 13 20 7 11 1009.4 1008.6 0.0
22/07:00pm 35.7 30.4 5.1 15 16.6 WSW 22 28 12 15 1009.4 1008.6 0.0
22/06:30pm 36.7 31.0 4.9 14 17.3 WSW 24 30 13 16 1009.2 1008.4 0.0
22/06:00pm 36.1 31.1 4.4 14 17.1 W 20 30 11 16 1008.8 1008.0 0.0
22/05:30pm 37.4 31.4 3.2 12 18.2 WSW 24 33 13 18 1008.7 1007.9 0.0
22/05:00pm 38.3 32.0 1.3 10 19.2 W 24 32 13 17 1008.7 1007.9 0.0
22/04:30pm 38.5 31.4 1.5 10 19.3 W 28 48 15 26 1008.8 1008.0 0.0
22/04:29pm 38.4 30.9 1.4 10 19.2 W 30 48 16 26 1008.9 1008.1 0.0
22/04:00pm 37.4 30.8 2.0 11 18.5 W 26 32 14 17 1009.2 1008.4 0.0
22/03:36pm 37.0 30.0 1.7 11 18.3 W 28 46 15 25 1009.6 1008.9 0.0
22/03:30pm 37.2 28.8 1.8 11 18.4 W 35 46 19 25 1009.6 1008.9 0.0
22/03:00pm 37.5 31.5 3.3 12 18.2 NW 24 39 13 21 1010.0 1009.3 0.0
22/02:46pm 38.9 32.1 3.1 11 19.1 NW 28 46 15 25 1010.2 1009.5 0.0
22/02:30pm 37.6 30.9 3.4 12 18.2 WNW 28 37 15 20 1010.4 1009.7 0.0
22/02:00pm 37.0 30.9 2.9 12 18.0 NNW 24 32 13 17 1010.6 1009.9 0.0
22/01:30pm 38.0 32.8 3.7 12 18.4 NW 20 28 11 15 1010.9 1010.2 0.0
22/01:00pm 35.9 31.2 3.2 13 17.2 NNW 17 28 9 15 1011.1 1010.4 0.0
22/12:30pm 36.0 30.9 4.3 14 17.0 N 20 26 11 14 1011.3 1010.6 0.0
22/12:00pm 35.5 30.4 3.9 14 16.8 NW 20 33 11 18 1011.7 1011.0 0.0
22/11:30am 35.1 30.9 5.5 16 16.1 NW 17 24 9 13 1011.7 1011.0 0.0
22/11:00am 34.6 30.3 5.1 16 15.9 NW 17 30 9 16 1012.0 1011.3 0.0
22/10:30am 32.9 28.8 4.6 17 15.0 N 15 24 8 13 1012.1 1011.4 0.0
22/10:00am 32.9 29.4 5.5 18 14.7 NE 13 22 7 12 1012.2 1011.5 0.0
22/09:30am 31.1 27.6 5.5 20 13.6 NE 13 19 7 10 1012.5 1011.8 0.0
22/09:00am 29.7 26.2 7.0 24 12.3 ENE 15 19 8 10 1012.7 1012.0 0.0
22/08:30am 27.3 24.4 8.2 30 10.4 E 13 17 7 9 1012.7 1012.0 0.0
22/08:00am 25.4 23.6 8.0 33 9.4 SSW 7 11 4 6 1012.6 1011.9 0.0
22/07:30am 22.9 22.5 8.2 39 7.8 CALM 0 0 0 0 1012.6 1011.9 0.0
22/07:00am 20.1 19.2 9.4 50 5.7 SW 4 7 2 4 1012.4 1011.7 0.0
22/06:30am 16.1 16.0 9.5 65 3.5 CALM 0 0 0 0 1011.9 1011.2 0.0
22/06:00am 15.1 14.7 8.3 64 3.5 CALM 0 0 0 0 1011.5 1010.8 0.0
22/05:30am 15.3 15.0 8.8 65 3.3 CALM 0 0 0 0 1011.3 1010.6 0.0
22/05:00am 15.5 15.2 8.7 64 3.5 CALM 0 0 0 0 1011.0 1010.3 0.0

Other Formats:

Comma delimited format used in spreadsheet applications
http://www.bom.gov.au/fwo/IDN60801/IDN60801.95708.axf

JavaScript Object Notation format (JSON) in row-major order
http://www.bom.gov.au/fwo/IDN60801/IDN60801.95708.json